Kenton, DE (19955)

14:59 EDT le 25 octobre 2014 (GMT -0400)
Cottagedale Acres | Change Station
CLOSE
Current Station
Stations météorologiques personnelles
Location: Smyrna, DE
Altitude: 30 ft
Stations météo à proximité

Alt. 30 ft 39.29 °N, 75.61 °W | Updated 1 minute ago

Ciel dégagé
Ciel dégagé
74.5 ° F
Paraît 76 ° F
N
6.5
Vent Variable Vent de SSO
Gusts 9.2 mph

Aujourd'hui
Haut(e) -- | Bas -- ° F
--% Risque de précip.
Hier
Haut(e) -- | Bas -- ° F
Precip. -- pouce
7:22 AM 6:10 PM
Lune montante, 4% visible
Pression 29.80 pouce
Visibilité 10.0 Miles terrestres
Nuages Ciel dégagé
indice de chaleur 76 ° F
Point de rosée 36 ° F
Humidité 25%
Précipitations 0.00 pouce
Profondeur de la couche neigeuse Non disponible.
UV 4 sur 12
Pollen 1.20 sur 12
Qualité de l'air Non disponible.
Flu Activity Sporadic
METAR KDOV 251758Z AUTO 25011KT 10SM CLR 20/07 A2979 RMK AO2 SLP091 T02020074 10203 20080 57040

More Conditions Fewer Conditions

Pression 29.80 pouce
Visibilité 10.0 Miles terrestres
Nuages Ciel dégagé
indice de chaleur 76 ° F
Point de rosée 36 ° F
Humidité 25%
Précipitations 0.00 pouce
Profondeur de la couche neigeuse Non disponible.
UV 4 sur 12
Pollen 1.20 sur 12
Qualité de l'air Non disponible.
Flu Activity Sporadic
METAR KDOV 251758Z AUTO 25011KT 10SM CLR 20/07 A2979 RMK AO2 SLP091 T02020074 10203 20080 57040

More Conditions Fewer Conditions

10-Day Weather Forecast

Almanac

Astronomie

Oct. 25, 2014 Lever Coucher
Temps réel 07:22 EDT 18:10 EDT
Crépuscule civil 06:55 EDT 18:37 EDT
Crépuscule nautique 06:24 EDT 19:08 EDT
Crépuscule astronomique 05:52 EDT 19:39 EDT
Lune 08:58 EDT 19:31 EDT
Durée de lumière visible 11h 42m
Longueur du jour
10h 47m
Tomorrow will be 2m 21s shorter.
Lune montante, 4% of the Moon is Illuminated
Aujourd'hui
Lune montante
Oct 30
Premier quartier
Nov 6
Pleine lune
Nov 14
Dernier quartier
Nov 22
Nouveau

Extrêmes aujourd'hui

State Highs State Lows

Community

WunderPhotos

Upload Photos

1,764,954 Photos téléchargées !

Nearby

Épaisseur de neige

Station Depth Altitude
Pas de nouvelles chutes de neige

Activité sismique

Ville Distance Mag. Time & Date
No recent earthquake activity has been reported nearby.
Minimum magnitude displayed is 2.5.

Températures des eaux côtières

Lieu Température
Cape May, NJ 64.0 ° F
Reedy Point, DE 61.0 ° F
Delaware City, DE 61.0 ° F
Marcus Hook, PA 62.1 ° F

Stations météo à proximité